createdAt,value
2019-02-15T00:00:09.968Z,18.87
2019-02-15T00:02:38.643Z,17.40
2019-02-15T00:05:07.645Z,16.07
2019-02-15T00:07:36.246Z,13.22
2019-02-15T00:10:06.040Z,14.90
2019-02-15T00:12:34.638Z,15.63
2019-02-15T00:15:03.260Z,13.70
2019-02-15T00:17:35.956Z,14.35
2019-02-15T00:20:10.284Z,12.33
2019-02-15T00:22:38.880Z,14.53
2019-02-15T00:25:07.513Z,13.88
2019-02-15T00:27:36.112Z,13.13
2019-02-15T00:30:08.951Z,16.95
2019-02-15T00:32:37.612Z,15.58
2019-02-15T00:35:06.238Z,13.53
2019-02-15T00:37:34.849Z,16.17
2019-02-15T00:40:04.539Z,13.65
2019-02-15T00:42:33.140Z,13.22
2019-02-15T00:45:01.704Z,14.63
2019-02-15T00:47:31.945Z,13.10
2019-02-15T00:50:02.132Z,13.90
2019-02-15T00:52:38.060Z,12.82
2019-02-15T00:55:17.152Z,15.53
2019-02-15T00:57:53.436Z,14.47
2019-02-15T01:00:41.560Z,17.20
2019-02-15T01:03:20.464Z,14.33
2019-02-15T01:06:05.959Z,13.22
2019-02-15T01:08:39.018Z,13.62
2019-02-15T01:11:11.991Z,15.00
2019-02-15T01:13:40.592Z,14.87
2019-02-15T01:16:09.144Z,16.65
2019-02-15T01:18:37.740Z,13.78
2019-02-15T01:21:06.367Z,14.93
2019-02-15T01:23:35.039Z,15.80
2019-02-15T01:26:05.232Z,15.53
2019-02-15T01:28:51.971Z,14.43
2019-02-15T01:31:22.164Z,14.35
2019-02-15T01:33:52.516Z,13.85
2019-02-15T01:36:22.709Z,15.65
2019-02-15T01:39:09.283Z,12.43
2019-02-15T01:41:39.477Z,16.67
2019-02-15T01:44:12.403Z,16.42
2019-02-15T01:46:42.650Z,14.98
2019-02-15T01:49:11.195Z,15.53
2019-02-15T01:51:39.754Z,12.75
2019-02-15T01:54:08.348Z,14.30
2019-02-15T01:56:36.908Z,15.00
2019-02-15T01:59:05.512Z,15.65
2019-02-15T02:01:34.068Z,17.20
2019-02-15T02:04:02.660Z,15.93
2019-02-15T02:06:31.208Z,16.57
2019-02-15T02:08:59.821Z,18.48
2019-02-15T02:11:28.380Z,16.60
2019-02-15T02:13:56.980Z,14.35
2019-02-15T02:16:25.527Z,12.85
2019-02-15T02:18:54.132Z,12.10
2019-02-15T02:21:22.684Z,14.20
2019-02-15T02:23:51.279Z,13.08
2019-02-15T02:26:19.839Z,16.37
2019-02-15T02:28:48.436Z,12.37
2019-02-15T02:31:17.068Z,14.98
2019-02-15T02:33:45.664Z,13.85
2019-02-15T02:36:14.219Z,12.98
2019-02-15T02:38:42.820Z,15.68
2019-02-15T02:41:11.383Z,14.70
2019-02-15T02:43:39.963Z,12.47
2019-02-15T02:46:08.515Z,16.35
2019-02-15T02:48:37.120Z,13.15
2019-02-15T02:51:05.674Z,18.17
2019-02-15T02:53:34.271Z,17.60
2019-02-15T02:56:02.829Z,15.72
2019-02-15T02:58:31.425Z,14.10
2019-02-15T03:00:59.989Z,16.82
2019-02-15T03:03:28.575Z,14.63
2019-02-15T03:05:57.130Z,13.45
2019-02-15T03:08:25.729Z,13.65
2019-02-15T03:10:54.310Z,13.05
2019-02-15T03:13:22.966Z,17.48
2019-02-15T03:15:51.428Z,14.78
2019-02-15T03:18:20.023Z,14.90
2019-02-15T03:20:48.577Z,19.37
2019-02-15T03:23:17.173Z,16.55
2019-02-15T03:25:45.800Z,15.60
2019-02-15T03:28:14.400Z,11.40
2019-02-15T03:30:42.957Z,13.65
2019-02-15T03:33:11.549Z,13.85
2019-02-15T03:35:41.737Z,12.73
2019-02-15T03:38:17.657Z,13.90
2019-02-15T03:40:46.217Z,13.40
2019-02-15T03:43:14.816Z,11.38
2019-02-15T03:45:44.246Z,13.78
2019-02-15T03:48:12.853Z,17.65
2019-02-15T03:50:41.408Z,11.12
2019-02-15T03:53:09.959Z,13.25
2019-02-15T03:55:38.563Z,15.75
2019-02-15T03:58:07.107Z,16.40
2019-02-15T04:00:35.773Z,14.47
2019-02-15T04:03:04.330Z,15.18
2019-02-15T04:05:32.929Z,12.73
2019-02-15T04:08:01.480Z,14.23
2019-02-15T04:10:30.085Z,11.93
2019-02-15T04:12:58.637Z,12.90
2019-02-15T04:15:27.236Z,13.68
2019-02-15T04:17:55.787Z,11.85
2019-02-15T04:20:24.385Z,18.75
2019-02-15T04:22:52.948Z,13.08
2019-02-15T04:25:21.532Z,15.48
2019-02-15T04:27:50.084Z,14.55
2019-02-15T04:30:18.755Z,13.32
2019-02-15T04:32:47.303Z,11.80
2019-02-15T04:35:15.906Z,12.43
2019-02-15T04:37:44.452Z,16.77
2019-02-15T04:40:13.048Z,14.30
2019-02-15T04:42:41.603Z,13.32
2019-02-15T04:45:10.267Z,11.38
2019-02-15T04:47:38.838Z,15.10
2019-02-15T04:50:09.090Z,15.13
2019-02-15T04:52:37.658Z,17.87
2019-02-15T04:55:06.912Z,14.87
2019-02-15T04:57:35.473Z,14.23
2019-02-15T05:00:04.908Z,13.20
2019-02-15T05:02:33.457Z,11.45
2019-02-15T05:05:02.062Z,11.55
2019-02-15T05:07:30.606Z,13.90
2019-02-15T05:09:59.200Z,11.88
2019-02-15T05:12:27.757Z,14.20
2019-02-15T05:14:56.363Z,15.50
2019-02-15T05:17:24.918Z,17.62
2019-02-15T05:19:53.513Z,13.50
2019-02-15T05:22:22.107Z,11.40
2019-02-15T05:24:50.668Z,15.95
2019-02-15T05:27:19.220Z,14.25
2019-02-15T05:29:47.821Z,12.70
2019-02-15T05:32:16.372Z,9.93
2019-02-15T05:34:44.968Z,12.58
2019-02-15T05:37:13.555Z,13.78
2019-02-15T05:39:42.121Z,10.72
2019-02-15T05:42:10.671Z,13.32
2019-02-15T05:44:39.267Z,16.55
2019-02-15T05:47:07.825Z,10.72
2019-02-15T05:49:36.680Z,12.37
2019-02-15T05:52:05.257Z,18.90
2019-02-15T05:54:33.852Z,13.93
2019-02-15T05:57:02.409Z,14.73
2019-02-15T05:59:31.015Z,12.63
2019-02-15T06:01:59.563Z,16.65
2019-02-15T06:04:28.159Z,14.60
2019-02-15T06:06:56.719Z,19.02
2019-02-15T06:09:25.267Z,15.78
2019-02-15T06:11:53.868Z,17.82
2019-02-15T06:14:22.434Z,17.12
2019-02-15T06:16:51.031Z,17.23
2019-02-15T06:19:19.604Z,15.08
2019-02-15T06:21:48.182Z,18.57
2019-02-15T06:24:16.732Z,13.45
2019-02-15T06:26:45.335Z,19.07
2019-02-15T06:29:13.888Z,15.48
2019-02-15T06:31:42.492Z,18.75
2019-02-15T06:34:11.044Z,16.57
2019-02-15T06:36:39.641Z,17.48
2019-02-15T06:39:08.268Z,16.67
2019-02-15T06:41:36.958Z,14.95
2019-02-15T06:44:05.576Z,16.93
2019-02-15T06:46:34.172Z,16.42
2019-02-15T06:49:02.915Z,14.78
2019-02-15T06:51:31.474Z,15.53
2019-02-15T06:54:00.023Z,14.25
2019-02-15T06:56:28.654Z,18.02
2019-02-15T06:58:58.843Z,14.45
2019-02-15T07:01:29.079Z,13.90
2019-02-15T07:04:02.965Z,16.35
2019-02-15T07:06:31.692Z,15.58
2019-02-15T07:09:00.245Z,14.28
2019-02-15T07:11:28.849Z,18.62
2019-02-15T07:13:57.400Z,14.75
2019-02-15T07:16:27.571Z,17.12
2019-02-15T07:18:56.256Z,18.15
2019-02-15T07:21:24.873Z,20.75
2019-02-15T07:23:53.734Z,24.45
2019-02-15T07:26:22.340Z,14.18
2019-02-15T07:28:50.957Z,16.62
2019-02-15T07:31:19.573Z,22.25
2019-02-15T07:33:48.121Z,18.57
2019-02-15T07:36:16.724Z,19.12
2019-02-15T07:38:45.340Z,16.32
2019-02-15T07:41:13.902Z,16.37
2019-02-15T07:43:43.118Z,20.15
2019-02-15T07:46:11.656Z,24.90
2019-02-15T07:48:40.878Z,18.82
2019-02-15T07:51:10.379Z,21.02
2019-02-15T07:53:40.684Z,23.38
2019-02-15T07:56:13.164Z,19.15
2019-02-15T07:58:41.699Z,22.27
2019-02-15T08:01:10.306Z,21.12
2019-02-15T08:03:38.866Z,20.70
2019-02-15T08:06:07.471Z,21.05
2019-02-15T08:08:36.034Z,26.25
2019-02-15T08:11:04.636Z,29.80
2019-02-15T08:13:33.196Z,29.25
2019-02-15T08:16:03.277Z,30.32
2019-02-15T08:18:33.277Z,33.70
2019-02-15T08:21:03.537Z,34.03
2019-02-15T08:23:32.101Z,32.55
2019-02-15T08:26:00.708Z,32.90
2019-02-15T08:28:29.293Z,28.65
2019-02-15T08:30:57.954Z,28.92
2019-02-15T08:33:26.520Z,26.02
2019-02-15T08:35:55.147Z,30.17
2019-02-15T08:38:24.158Z,23.37
2019-02-15T08:40:52.729Z,27.45
2019-02-15T08:43:21.347Z,32.73
2019-02-15T08:45:49.893Z,24.80
2019-02-15T08:48:18.509Z,31.07
2019-02-15T08:50:47.071Z,23.93
2019-02-15T08:53:17.226Z,27.63
2019-02-15T08:55:45.816Z,24.73
2019-02-15T08:58:16.900Z,27.23
2019-02-15T09:00:45.664Z,25.93
2019-02-15T09:03:14.273Z,23.70
2019-02-15T09:05:42.832Z,20.40
2019-02-15T09:08:11.436Z,17.90
2019-02-15T09:10:39.999Z,17.30
2019-02-15T09:13:08.602Z,21.77
2019-02-15T09:15:37.164Z,22.87
2019-02-15T09:18:17.696Z,24.07
2019-02-15T09:20:46.296Z,21.50
2019-02-15T09:23:14.920Z,23.70
2019-02-15T09:25:43.482Z,23.67
2019-02-15T09:28:13.739Z,24.83
2019-02-15T09:30:43.617Z,26.80
2019-02-15T09:33:12.218Z,30.70
2019-02-15T09:35:40.779Z,31.43
2019-02-15T09:38:09.405Z,26.37
2019-02-15T09:40:37.976Z,23.93
2019-02-15T09:43:06.567Z,24.47
2019-02-15T09:45:35.120Z,25.03
2019-02-15T09:48:03.796Z,24.30
2019-02-15T09:50:32.362Z,32.37
2019-02-15T09:53:01.992Z,11.27
2019-02-15T09:55:30.554Z,13.37
2019-02-15T09:58:01.423Z,19.73
2019-02-15T10:00:30.176Z,14.37
2019-02-15T10:02:58.770Z,13.00
2019-02-15T10:05:27.343Z,11.13
2019-02-15T10:07:55.920Z,11.23
2019-02-15T10:10:24.524Z,8.67
2019-02-15T10:12:53.076Z,7.90
2019-02-15T10:15:21.664Z,8.23
2019-02-15T10:17:50.222Z,10.10
2019-02-15T10:20:18.797Z,10.30
2019-02-15T10:22:47.348Z,9.23
2019-02-15T10:25:15.939Z,8.13
2019-02-15T10:27:44.488Z,10.00
2019-02-15T10:30:13.578Z,10.10
2019-02-15T10:32:42.131Z,9.67
2019-02-15T10:37:44.809Z,9.37
2019-02-15T10:43:31.520Z,13.47
2019-02-15T10:46:12.749Z,9.90
2019-02-15T10:48:53.963Z,11.57
2019-02-15T10:51:34.777Z,10.57
2019-02-15T10:54:15.331Z,10.10
2019-02-15T10:56:55.938Z,15.33
2019-02-15T10:59:36.422Z,10.90
2019-02-15T11:02:17.440Z,12.60
2019-02-15T11:04:58.293Z,15.33
2019-02-15T11:07:38.980Z,14.93
2019-02-15T11:10:19.857Z,28.43
2019-02-15T11:13:00.583Z,13.00
2019-02-15T11:15:41.493Z,11.80
2019-02-15T11:18:22.292Z,13.50
2019-02-15T11:21:03.381Z,11.07
2019-02-15T11:23:44.021Z,9.93
2019-02-15T11:26:25.103Z,9.80
2019-02-15T11:29:05.521Z,11.27
2019-02-15T11:31:46.469Z,15.53
2019-02-15T11:34:27.207Z,8.63
2019-02-15T11:37:08.189Z,12.10
2019-02-15T11:39:49.174Z,10.57
2019-02-15T11:42:29.884Z,11.07
2019-02-15T11:45:10.728Z,10.90
2019-02-15T11:47:51.836Z,12.63
2019-02-15T11:50:32.480Z,11.90
2019-02-15T11:53:13.269Z,14.03
2019-02-15T11:55:53.994Z,11.17
2019-02-15T11:58:34.792Z,16.33
2019-02-15T12:07:32.504Z,15.00
2019-02-15T12:10:13.176Z,16.77
2019-02-15T12:12:54.074Z,12.40
2019-02-15T12:15:35.153Z,56.13
2019-02-15T12:18:15.851Z,12.90
2019-02-15T12:20:56.456Z,17.03
2019-02-15T12:23:37.094Z,14.97
2019-02-15T12:26:17.774Z,15.10
2019-02-15T12:28:58.735Z,17.77
2019-02-15T12:31:39.276Z,17.93
2019-02-15T12:34:20.092Z,11.77
2019-02-15T12:37:00.905Z,13.57
2019-02-15T12:39:41.725Z,15.00
2019-02-15T12:42:22.443Z,10.53
2019-02-15T12:45:03.213Z,13.77
2019-02-15T12:47:44.261Z,21.00
2019-02-15T12:50:24.877Z,15.70
2019-02-15T12:53:05.841Z,12.57
2019-02-15T12:55:47.075Z,11.17
2019-02-15T12:58:27.688Z,11.00
2019-02-15T13:01:08.525Z,9.43
2019-02-15T13:03:49.626Z,11.40
2019-02-15T13:06:30.198Z,12.13
2019-02-15T13:09:10.769Z,12.50
2019-02-15T13:18:01.789Z,9.87
2019-02-15T13:20:42.436Z,9.87
2019-02-15T13:23:23.233Z,10.33
2019-02-15T13:26:08.456Z,10.47
2019-02-15T13:28:46.693Z,8.57
2019-02-15T13:31:15.245Z,8.53
2019-02-15T13:33:43.864Z,9.57
2019-02-15T13:36:12.443Z,9.80
2019-02-15T13:38:41.013Z,7.73
2019-02-15T13:41:09.564Z,11.13
2019-02-15T13:43:38.154Z,9.73
2019-02-15T13:46:06.709Z,9.50
2019-02-15T13:48:35.300Z,9.73
2019-02-15T13:51:03.918Z,9.53
2019-02-15T13:53:32.531Z,7.43
2019-02-15T13:56:01.087Z,8.90
2019-02-15T13:58:29.696Z,10.10
2019-02-15T14:00:58.255Z,9.93
2019-02-15T14:03:26.866Z,8.07
2019-02-15T14:05:55.427Z,10.50
2019-02-15T14:08:24.036Z,9.07
2019-02-15T14:10:52.589Z,7.53
2019-02-15T14:13:21.203Z,8.67
2019-02-15T14:15:49.749Z,14.90
2019-02-15T14:18:18.361Z,9.73
2019-02-15T14:20:46.969Z,10.17
2019-02-15T14:23:15.567Z,10.10
2019-02-15T14:25:44.116Z,9.60
2019-02-15T14:28:12.701Z,7.37
2019-02-15T14:30:41.257Z,6.97
2019-02-15T14:33:09.804Z,9.43
2019-02-15T14:35:38.388Z,10.37
2019-02-15T14:38:06.940Z,9.63
2019-02-15T14:40:35.592Z,9.77
2019-02-15T14:43:04.345Z,13.37
2019-02-15T14:45:32.906Z,16.20
2019-02-15T14:48:01.528Z,20.37
2019-02-15T14:50:30.092Z,11.20
2019-02-15T14:52:58.675Z,9.40
2019-02-15T14:55:27.217Z,9.13
2019-02-15T14:57:55.807Z,10.77
2019-02-15T15:00:24.495Z,13.57
2019-02-15T15:02:53.061Z,11.33
2019-02-15T15:05:21.672Z,8.37
2019-02-15T15:07:50.228Z,8.63
2019-02-15T15:10:18.837Z,7.73
2019-02-15T15:12:47.396Z,7.93
2019-02-15T15:15:16.432Z,7.00
2019-02-15T15:17:44.988Z,8.53
2019-02-15T15:20:13.945Z,9.53
2019-02-15T15:22:42.500Z,8.03
2019-02-15T15:25:17.102Z,9.83
2019-02-15T15:27:45.725Z,9.43
2019-02-15T15:30:15.464Z,10.70
2019-02-15T15:32:44.080Z,11.53
2019-02-15T15:35:13.032Z,10.27
2019-02-15T15:37:41.660Z,7.07
2019-02-15T15:40:17.601Z,9.17
2019-02-15T15:42:46.162Z,7.57
2019-02-15T15:45:15.308Z,8.17
2019-02-15T15:47:43.868Z,10.77
2019-02-15T15:50:12.816Z,10.27
2019-02-15T15:52:41.431Z,15.90
2019-02-15T15:55:13.897Z,12.93
2019-02-15T15:57:42.445Z,15.17
2019-02-15T16:00:15.676Z,9.80
2019-02-15T16:02:44.236Z,10.50
2019-02-15T16:05:12.920Z,12.23
2019-02-15T16:07:43.413Z,9.57
2019-02-15T16:10:13.210Z,11.70
2019-02-15T16:12:42.028Z,10.10
2019-02-15T16:15:12.280Z,10.03
2019-02-15T16:17:40.843Z,11.23
2019-02-15T16:20:11.092Z,10.37
2019-02-15T16:22:39.722Z,7.97
2019-02-15T16:25:09.440Z,13.07
2019-02-15T16:27:37.999Z,8.90
2019-02-15T16:30:12.254Z,8.20
2019-02-15T16:32:40.804Z,12.20
2019-02-15T16:35:09.956Z,10.43
2019-02-15T16:37:38.589Z,12.77
2019-02-15T16:40:12.853Z,12.33
2019-02-15T16:42:41.548Z,13.30
2019-02-15T16:45:12.875Z,14.00
2019-02-15T16:47:41.596Z,13.87
2019-02-15T16:50:10.548Z,15.10
2019-02-15T16:52:39.101Z,17.53
2019-02-15T16:55:12.717Z,10.97
2019-02-15T16:57:39.211Z,13.60
2019-02-15T17:00:10.756Z,14.60
2019-02-15T17:02:39.310Z,11.97
2019-02-15T17:05:08.122Z,14.37
2019-02-15T17:07:36.746Z,20.10
2019-02-15T17:10:08.187Z,10.87
2019-02-15T17:12:36.757Z,10.73
2019-02-15T17:15:15.673Z,11.40
2019-02-15T17:17:44.204Z,12.97
2019-02-15T17:20:12.888Z,10.57
2019-02-15T17:22:41.440Z,14.03
2019-02-15T17:25:12.273Z,11.57
2019-02-15T17:27:40.827Z,9.10
2019-02-15T17:30:10.888Z,10.57
2019-02-15T17:32:39.454Z,7.90
2019-02-15T17:35:10.091Z,15.77
2019-02-15T17:37:38.788Z,11.47
2019-02-15T17:40:15.364Z,12.37
2019-02-15T17:42:43.992Z,20.50
2019-02-15T17:45:12.960Z,12.40
2019-02-15T17:47:41.598Z,14.53
2019-02-15T17:50:11.473Z,17.87
2019-02-15T17:52:40.104Z,18.43
2019-02-15T17:55:10.467Z,26.57
2019-02-15T17:57:39.339Z,20.57
2019-02-15T18:00:13.113Z,21.20
2019-02-15T18:02:41.759Z,18.53
2019-02-15T18:05:12.512Z,16.93
2019-02-15T18:07:41.143Z,14.07
2019-02-15T18:10:09.784Z,13.53
2019-02-15T18:12:38.422Z,10.17
2019-02-15T18:15:07.304Z,15.23
2019-02-15T18:17:35.945Z,14.23
2019-02-15T18:20:05.936Z,12.03
2019-02-15T18:22:34.568Z,14.17
2019-02-15T18:25:03.292Z,17.67
2019-02-15T18:27:31.991Z,18.37
2019-02-15T18:30:00.550Z,10.43
2019-02-15T18:32:29.240Z,9.87
2019-02-15T18:34:57.787Z,9.80
2019-02-15T18:37:26.693Z,10.93
2019-02-15T18:39:55.239Z,10.13
2019-02-15T18:42:23.956Z,11.03
2019-02-15T18:44:52.519Z,10.67
2019-02-15T18:47:21.147Z,9.47
2019-02-15T18:49:49.701Z,13.07
2019-02-15T18:52:18.324Z,10.50
2019-02-15T18:54:46.883Z,12.30
2019-02-15T18:57:15.506Z,13.50
2019-02-15T18:59:44.069Z,12.33
2019-02-15T19:02:12.688Z,9.13
2019-02-15T19:04:41.236Z,8.70
2019-02-15T19:07:09.859Z,10.23
2019-02-15T19:09:38.490Z,10.90
2019-02-15T19:12:07.124Z,11.50
2019-02-15T19:14:35.680Z,12.27
2019-02-15T19:17:04.482Z,11.07
2019-02-15T19:19:33.036Z,12.10
2019-02-15T19:22:01.770Z,11.57
2019-02-15T19:24:30.319Z,9.63
2019-02-15T19:26:58.945Z,13.43
2019-02-15T19:29:27.503Z,17.73
2019-02-15T19:31:56.132Z,22.97
2019-02-15T19:34:24.752Z,23.17
2019-02-15T19:36:53.333Z,28.27
2019-02-15T19:39:21.892Z,25.27
2019-02-15T19:41:50.525Z,19.97
2019-02-15T19:44:19.081Z,18.37
2019-02-15T19:46:47.728Z,19.10
2019-02-15T19:49:16.313Z,18.20
2019-02-15T19:51:44.945Z,24.67
2019-02-15T19:54:13.617Z,19.53
2019-02-15T19:56:42.249Z,32.77
2019-02-15T19:59:10.829Z,21.17
2019-02-15T20:01:39.461Z,16.57
2019-02-15T20:04:08.019Z,12.70
2019-02-15T20:06:36.659Z,11.30
2019-02-15T20:09:05.924Z,10.30
2019-02-15T20:11:34.557Z,12.07
2019-02-15T20:14:03.128Z,16.47
2019-02-15T20:16:31.816Z,10.57
2019-02-15T20:19:00.323Z,11.40
2019-02-15T20:21:28.955Z,18.70
2019-02-15T20:23:57.503Z,15.57
2019-02-15T20:26:26.437Z,16.47
2019-02-15T20:28:55.004Z,15.87
2019-02-15T20:31:23.642Z,14.70
2019-02-15T20:33:52.190Z,12.43
2019-02-15T20:36:20.749Z,16.47
2019-02-15T20:38:49.381Z,16.27
2019-02-15T20:41:19.575Z,15.10
2019-02-15T20:43:48.206Z,12.33
2019-02-15T20:46:16.760Z,18.00
2019-02-15T20:48:45.391Z,12.10
2019-02-15T20:51:14.044Z,15.30
2019-02-15T20:53:42.679Z,10.97
2019-02-15T20:56:11.232Z,15.60
2019-02-15T20:58:39.860Z,17.07
2019-02-15T21:01:08.716Z,17.17
2019-02-15T21:03:37.352Z,15.93
2019-02-15T21:06:05.912Z,13.80
2019-02-15T21:08:34.582Z,12.57
2019-02-15T21:11:03.120Z,13.60
2019-02-15T21:13:31.746Z,15.33
2019-02-15T21:16:00.299Z,13.27
2019-02-15T21:18:29.097Z,14.73
2019-02-15T21:20:57.662Z,12.87
2019-02-15T21:23:26.284Z,16.30
2019-02-15T21:25:54.843Z,14.27
2019-02-15T21:28:23.472Z,13.13
2019-02-15T21:30:52.035Z,13.27
2019-02-15T21:33:20.664Z,13.33
2019-02-15T21:35:49.219Z,14.10
2019-02-15T21:38:17.856Z,17.90
2019-02-15T21:40:46.420Z,21.43
2019-02-15T21:43:15.064Z,24.57
2019-02-15T21:45:43.628Z,28.00
2019-02-15T21:48:12.265Z,24.50
2019-02-15T21:50:40.829Z,22.40
2019-02-15T21:53:09.460Z,20.73
2019-02-15T21:55:38.018Z,20.07
2019-02-15T21:58:06.736Z,21.23
2019-02-15T22:00:35.358Z,15.87
2019-02-15T22:03:04.059Z,14.85
2019-02-15T22:05:32.621Z,19.80
2019-02-15T22:08:01.735Z,20.83
2019-02-15T22:10:30.291Z,16.07
2019-02-15T22:12:58.920Z,21.27
2019-02-15T22:15:27.485Z,16.62
2019-02-15T22:17:56.100Z,21.20
2019-02-15T22:20:26.961Z,17.33
2019-02-15T22:22:54.996Z,20.70
2019-02-15T22:25:23.559Z,19.43
2019-02-15T22:27:52.182Z,18.45
2019-02-15T22:30:21.116Z,21.02
2019-02-15T22:32:49.735Z,20.30
2019-02-15T22:35:18.292Z,17.73
2019-02-15T22:37:46.959Z,16.90
2019-02-15T22:40:31.904Z,17.40
2019-02-15T22:43:03.153Z,13.08
2019-02-15T22:45:31.707Z,19.37
2019-02-15T22:48:00.324Z,15.35
2019-02-15T22:50:35.584Z,14.27
2019-02-15T22:52:59.120Z,15.05
2019-02-15T22:55:27.685Z,16.82
2019-02-15T22:57:56.294Z,15.20
2019-02-15T23:00:53.158Z,13.50
2019-02-15T23:03:23.900Z,21.85
2019-02-15T23:05:52.465Z,15.10
2019-02-15T23:08:21.211Z,13.60
2019-02-15T23:10:49.845Z,14.73
2019-02-15T23:13:18.523Z,13.53
2019-02-15T23:15:47.220Z,10.72
2019-02-15T23:18:15.887Z,15.48
2019-02-15T23:20:45.470Z,10.63
2019-02-15T23:23:14.325Z,10.75
2019-02-15T23:25:42.951Z,8.10
2019-02-15T23:28:11.565Z,10.78
2019-02-15T23:30:40.117Z,10.88
2019-02-15T23:33:08.725Z,10.53
2019-02-15T23:35:37.361Z,14.28
2019-02-15T23:38:05.969Z,9.88
2019-02-15T23:40:34.537Z,11.22
2019-02-15T23:43:03.209Z,12.37
2019-02-15T23:45:31.785Z,10.98
2019-02-15T23:48:00.390Z,13.58
2019-02-15T23:50:28.957Z,10.60
2019-02-15T23:52:57.556Z,9.15
2019-02-15T23:55:26.103Z,10.28
2019-02-15T23:57:54.713Z,12.63
